Time;durP1;ratioP1;P1;durP2;ratioP2;P2;SDS_P1;SDS_P2;PMS_P1;PMS_P2;Temp;Humidity;BMP_temperature;BMP_pressure;BME280_temperature;BME280_humidity;BME280_pressure;Samples;Min_cycle;Max_cycle;Signal;HPM_P1;HPM_P2
2023/06/12 00:01:53;;;;;;;10.70;6.00;;;;;;;14.26;100.00;99190.05;109265;1250;58395;-73
2023/06/12 00:04:21;;;;;;;10.20;6.50;;;;;;;14.24;100.00;99187.56;109616;1250;58225;-77
2023/06/12 00:06:50;;;;;;;8.00;6.50;;;;;;;14.22;100.00;99185.36;109621;1250;64998;-77
2023/06/12 00:09:17;;;;;;;7.40;6.70;;;;;;;14.20;100.00;99184.34;109528;1250;58738;-77
2023/06/12 00:11:43;;;;;;;9.00;6.10;;;;;;;14.17;100.00;99190.64;109640;1250;62648;-76
2023/06/12 00:14:10;;;;;;;5.80;5.20;;;;;;;14.14;100.00;99191.59;109624;1250;58226;-76
2023/06/12 00:16:37;;;;;;;6.70;6.10;;;;;;;14.11;100.00;99190.73;109592;1250;58495;-77
2023/06/12 00:19:04;;;;;;;6.80;5.60;;;;;;;14.07;100.00;99189.26;109618;1250;66703;-75
2023/06/12 00:21:31;;;;;;;7.00;6.30;;;;;;;14.05;100.00;99191.39;109683;1250;58902;-75
2023/06/12 00:23:57;;;;;;;7.60;6.20;;;;;;;14.03;100.00;99189.22;109613;1249;63898;-77
2023/06/12 00:26:24;;;;;;;7.50;5.70;;;;;;;14.01;100.00;99186.16;109610;1249;58189;-76
2023/06/12 00:28:50;;;;;;;7.70;6.70;;;;;;;13.99;100.00;99183.66;109660;1249;58368;-77
2023/06/12 00:31:17;;;;;;;6.70;5.90;;;;;;;13.97;100.00;99188.08;109648;1250;58500;-77
2023/06/12 00:33:44;;;;;;;7.60;6.40;;;;;;;13.95;100.00;99184.66;109630;1250;59900;-77
2023/06/12 00:36:10;;;;;;;7.20;5.80;;;;;;;13.93;100.00;99184.67;109578;1250;63730;-77
2023/06/12 00:38:37;;;;;;;6.40;5.40;;;;;;;13.90;100.00;99182.39;109523;1250;58236;-76
2023/06/12 00:41:03;;;;;;;8.60;6.20;;;;;;;13.88;100.00;99180.42;109630;1250;58241;-76
2023/06/12 00:43:30;;;;;;;7.30;5.60;;;;;;;13.85;100.00;99180.44;109291;1250;64064;-75
2023/06/12 00:45:57;;;;;;;6.70;5.40;;;;;;;13.82;100.00;99182.45;109645;1250;60025;-76
2023/06/12 00:48:23;;;;;;;6.30;5.80;;;;;;;13.78;100.00;99182.20;109613;1249;64265;-77
2023/06/12 00:50:52;;;;;;;5.80;5.10;;;;;;;13.77;100.00;99183.93;109563;1250;58233;-77
2023/06/12 00:53:19;;;;;;;5.80;5.30;;;;;;;13.74;100.00;99183.07;109615;1249;58278;-77
2023/06/12 00:55:45;;;;;;;8.20;5.60;;;;;;;13.72;100.00;99182.73;109589;1250;65403;-77
2023/06/12 00:58:12;;;;;;;8.00;5.40;;;;;;;13.70;100.00;99184.66;109658;1249;59888;-76
2023/06/12 01:00:40;;;;;;;6.00;5.40;;;;;;;13.67;100.00;99183.22;109653;1250;64168;-76
2023/06/12 01:03:10;;;;;;;8.80;6.70;;;;;;;13.65;100.00;99178.79;109588;1250;58527;-77
2023/06/12 01:05:40;;;;;;;5.70;5.20;;;;;;;13.63;100.00;99182.88;109649;1250;58563;-77
2023/06/12 01:08:26;;;;;;;6.90;5.70;;;;;;;13.59;100.00;99178.14;109653;1250;63904;-77
2023/06/12 01:11:04;;;;;;;7.50;5.90;;;;;;;13.56;100.00;99179.10;109621;1250;58649;-77
2023/06/12 01:13:31;;;;;;;6.80;6.00;;;;;;;13.52;100.00;99180.97;109589;1250;63744;-76
2023/06/12 01:15:57;;;;;;;7.70;6.50;;;;;;;13.49;100.00;99185.16;109617;1249;58251;-77
2023/06/12 01:18:25;;;;;;;7.30;6.20;;;;;;;13.45;100.00;99183.65;109504;1250;58371;-76
2023/06/12 01:20:55;;;;;;;6.90;6.20;;;;;;;13.42;100.00;99183.56;109637;1250;63989;-75
2023/06/12 01:23:37;;;;;;;7.30;6.60;;;;;;;13.38;100.00;99181.66;109660;1250;67779;-77
2023/06/12 01:26:41;;;;;;;6.50;5.90;;;;;;;13.34;100.00;99181.78;109590;1250;63767;-75
2023/06/12 01:29:31;;;;;;;8.00;6.10;;;;;;;13.28;100.00;99185.15;109584;1249;58174;-76
2023/06/12 01:32:08;;;;;;;7.20;5.90;;;;;;;13.24;100.00;99186.32;109684;1250;58154;-77
2023/06/12 01:34:37;;;;;;;8.80;6.40;;;;;;;13.22;100.00;99185.95;109635;1250;65413;-76
2023/06/12 01:37:17;;;;;;;7.60;6.80;;;;;;;13.20;100.00;99183.58;109672;1250;58799;-77
2023/06/12 01:39:54;;;;;;;8.60;6.70;;;;;;;13.17;100.00;99182.29;109640;1249;64548;-76
2023/06/12 01:42:21;;;;;;;7.20;6.40;;;;;;;13.16;100.00;99187.60;109600;1254;58444;-78
2023/06/12 01:44:50;;;;;;;7.20;6.40;;;;;;;13.14;100.00;99191.31;109645;1250;58327;-77
2023/06/12 01:47:16;;;;;;;7.30;6.50;;;;;;;13.12;100.00;99190.77;109611;1249;64102;-77
2023/06/12 01:49:43;;;;;;;8.20;5.50;;;;;;;13.09;100.00;99186.15;109710;1250;58937;-77
2023/06/12 01:52:09;;;;;;;6.70;6.00;;;;;;;13.07;100.00;99185.77;109529;1250;140817;-77
2023/06/12 01:54:36;;;;;;;7.40;6.20;;;;;;;13.05;100.00;99184.50;109654;1250;58119;-77
2023/06/12 01:57:03;;;;;;;6.60;6.00;;;;;;;13.04;100.00;99185.50;109634;1250;58058;-76
2023/06/12 01:59:29;;;;;;;6.30;5.70;;;;;;;13.02;100.00;99188.06;109618;1250;65198;-77
2023/06/12 02:01:56;;;;;;;7.40;6.00;;;;;;;13.00;100.00;99188.10;109637;1250;58384;-77
2023/06/12 02:04:22;;;;;;;7.80;6.20;;;;;;;12.96;100.00;99192.63;109616;1250;63022;-78
2023/06/12 02:06:49;;;;;;;6.70;6.10;;;;;;;12.93;100.00;99194.64;109633;1250;58195;-76
2023/06/12 02:09:15;;;;;;;8.00;6.70;;;;;;;12.91;100.00;99193.71;109603;1251;58250;-76
2023/06/12 02:11:42;;;;;;;6.80;6.20;;;;;;;12.88;100.00;99192.30;109536;1250;65217;-76
2023/06/12 02:14:08;;;;;;;7.60;6.80;;;;;;;12.87;100.00;99193.50;109681;1250;58991;-77
2023/06/12 02:16:35;;;;;;;7.70;6.60;;;;;;;12.84;100.00;99190.84;109682;1250;64119;-76
2023/06/12 02:19:02;;;;;;;8.50;6.50;;;;;;;12.82;100.00;99196.36;109596;1250;58118;-76
2023/06/12 02:21:29;;;;;;;8.00;6.50;;;;;;;12.78;100.00;99192.35;109702;1250;58232;-76
2023/06/12 02:23:55;;;;;;;7.70;6.90;;;;;;;12.75;100.00;99192.75;109391;1250;64974;-76
2023/06/12 02:26:22;;;;;;;6.90;6.30;;;;;;;12.71;100.00;99192.98;109609;1250;58216;-77
2023/06/12 02:29:09;;;;;;;6.10;5.60;;;;;;;12.67;100.00;99199.20;109655;1250;64182;-76
2023/06/12 02:31:35;;;;;;;6.70;6.10;;;;;;;12.63;100.00;99196.45;109511;1250;58470;-76
2023/06/12 02:34:02;;;;;;;7.20;6.50;;;;;;;12.61;100.00;99198.95;109662;1249;58139;-76
2023/06/12 02:36:29;;;;;;;8.80;7.00;;;;;;;12.60;100.00;99199.73;109607;1250;58192;-76
2023/06/12 02:38:56;;;;;;;7.00;6.30;;;;;;;12.59;100.00;99200.34;109680;1250;58923;-77
2023/06/12 02:41:23;;;;;;;8.40;5.90;;;;;;;12.58;100.00;99202.54;109421;1250;62496;-76
2023/06/12 02:43:50;;;;;;;9.30;6.50;;;;;;;12.58;100.00;99206.64;109637;1250;58205;-76
2023/06/12 02:46:17;;;;;;;7.30;6.70;;;;;;;12.59;100.00;99207.83;109622;1250;58301;-76
2023/06/12 02:48:43;;;;;;;6.90;6.30;;;;;;;12.60;100.00;99210.77;109662;1249;65473;-77
2023/06/12 02:51:10;;;;;;;9.30;6.80;;;;;;;12.60;100.00;99216.64;109324;1250;58805;-77
2023/06/12 02:53:36;;;;;;;9.90;7.50;;;;;;;12.60;100.00;99218.25;109643;1250;64074;-76
2023/06/12 02:56:03;;;;;;;8.60;6.50;;;;;;;12.61;100.00;99219.08;109628;1250;58334;-77
2023/06/12 02:58:30;;;;;;;8.50;6.90;;;;;;;12.62;100.00;99221.15;109656;1249;58298;-76
2023/06/12 03:00:57;;;;;;;7.00;6.30;;;;;;;12.63;100.00;99219.48;109617;1250;58110;-76
2023/06/12 03:03:25;;;;;;;6.90;6.10;;;;;;;12.64;100.00;99222.94;109620;1250;58895;-77
2023/06/12 03:05:51;;;;;;;9.20;7.90;;;;;;;12.66;100.00;99223.88;109590;1250;64042;-78
2023/06/12 03:08:18;;;;;;;7.70;6.90;;;;;;;12.69;100.00;99223.85;109627;1250;58414;-77
2023/06/12 03:10:45;;;;;;;8.20;6.80;;;;;;;12.73;100.00;99225.89;109686;1249;58281;-77
2023/06/12 03:13:14;;;;;;;7.70;6.90;;;;;;;12.79;100.00;99228.89;109673;1250;65014;-77
2023/06/12 03:15:41;;;;;;;7.00;6.30;;;;;;;12.83;100.00;99229.95;109413;1250;60244;-76
2023/06/12 03:18:07;;;;;;;9.10;7.80;;;;;;;12.88;100.00;99232.32;109613;1250;63883;-76
2023/06/12 03:20:34;;;;;;;8.60;6.80;;;;;;;12.93;100.00;99231.89;109632;1250;58180;-77
2023/06/12 03:23:01;;;;;;;7.00;6.20;;;;;;;13.00;100.00;99233.15;109650;1250;59019;-77
2023/06/12 03:25:28;;;;;;;9.40;6.50;;;;;;;13.09;100.00;99234.13;109644;1250;63698;-76
2023/06/12 03:27:55;;;;;;;6.80;6.20;;;;;;;13.39;100.00;99239.95;109303;1250;60337;-76
2023/06/12 03:30:21;;;;;;;5.20;4.70;;;;;;;14.32;100.00;99238.74;109641;1250;64053;-77
2023/06/12 03:32:48;;;;;;;5.80;5.20;;;;;;;15.27;100.00;99238.98;109671;1250;58205;-77
2023/06/12 03:35:14;;;;;;;7.50;5.70;;;;;;;16.04;100.00;99236.71;109616;1250;58050;-78
2023/06/12 03:37:41;;;;;;;6.20;5.50;;;;;;;16.75;100.00;99235.95;109607;1250;64013;-77
2023/06/12 03:40:08;;;;;;;8.60;5.30;;;;;;;17.39;100.00;99235.89;109681;1250;60250;-77
2023/06/12 03:42:36;;;;;;;5.70;4.90;;;;;;;17.89;100.00;99239.05;109313;1250;62523;-76
2023/06/12 03:45:03;;;;;;;5.70;4.60;;;;;;;18.32;100.00;99239.71;109587;1254;58291;-77
2023/06/12 03:47:29;;;;;;;8.90;4.30;;;;;;;18.60;99.21;99235.21;109622;1251;58066;-76
2023/06/12 03:49:56;;;;;;;5.40;4.90;;;;;;;19.00;95.59;99231.52;109695;1250;58515;-76
2023/06/12 03:52:23;;;;;;;6.80;5.20;;;;;;;19.35;92.21;99231.46;109701;1250;58939;-77
2023/06/12 03:54:49;;;;;;;6.10;5.00;;;;;;;19.75;91.34;99231.97;109614;1250;62906;-77
2023/06/12 03:57:16;;;;;;;9.50;5.80;;;;;;;20.23;87.19;99234.00;109620;1250;58401;-76
2023/06/12 03:59:42;;;;;;;5.20;4.70;;;;;;;20.48;83.16;99238.58;109704;1250;58183;-77
2023/06/12 04:02:09;;;;;;;8.20;5.50;;;;;;;20.72;82.02;99236.76;109649;1250;63863;-76
2023/06/12 04:04:35;;;;;;;5.70;5.20;;;;;;;21.03;79.17;99239.16;109630;1250;59752;-76
2023/06/12 04:07:02;;;;;;;7.10;5.70;;;;;;;21.26;77.45;99232.33;109682;1250;58268;-77
2023/06/12 04:09:30;;;;;;;5.80;5.00;;;;;;;21.49;75.56;99234.58;109674;1250;58165;-76
2023/06/12 04:11:56;;;;;;;6.00;5.50;;;;;;;21.69;74.32;99240.48;109626;1250;58261;-77
2023/06/12 04:14:23;;;;;;;5.80;5.30;;;;;;;21.90;72.69;99239.30;109592;1250;63910;-77
2023/06/12 04:16:49;;;;;;;6.40;5.00;;;;;;;22.11;71.98;99240.96;109671;1251;61420;-76
2023/06/12 04:19:17;;;;;;;8.40;5.20;;;;;;;22.12;70.18;99239.40;109571;1250;63908;-77
2023/06/12 04:21:43;;;;;;;6.20;5.60;;;;;;;22.11;69.44;99241.34;109663;1250;58168;-77
2023/06/12 04:24:15;;;;;;;6.10;5.00;;;;;;;22.24;69.28;99237.89;109707;1249;58238;-77
2023/06/12 04:26:48;;;;;;;5.70;5.00;;;;;;;22.50;67.47;99237.88;109706;1250;65236;-77
2023/06/12 04:29:16;;;;;;;5.70;5.10;;;;;;;22.52;66.19;99238.21;109656;1250;60124;-76
2023/06/12 04:31:42;;;;;;;7.10;5.20;;;;;;;22.44;66.80;99231.71;109619;1250;65040;-75
2023/06/12 04:34:09;;;;;;;7.90;4.70;;;;;;;22.77;65.82;99234.95;109644;1250;58225;-76
2023/06/12 04:36:37;;;;;;;5.40;4.90;;;;;;;22.86;64.19;99231.49;109672;1251;58200;-75
2023/06/12 04:39:05;;;;;;;4.80;4.40;;;;;;;22.97;64.52;99236.02;109682;1250;65413;-76
2023/06/12 04:41:32;;;;;;;5.00;4.60;;;;;;;23.18;63.48;99233.95;109555;1250;58983;-75
2023/06/12 04:43:59;;;;;;;6.70;5.00;;;;;;;23.28;62.33;99235.55;109605;1250;62554;-76
2023/06/12 04:46:27;;;;;;;5.80;4.60;;;;;;;23.12;60.98;99240.44;109626;1250;58061;-76
2023/06/12 04:48:55;;;;;;;4.60;4.20;;;;;;;22.93;61.33;99242.23;109650;1250;58173;-76
2023/06/12 04:51:23;;;;;;;5.30;4.80;;;;;;;23.00;61.27;99250.59;109685;1250;64303;-75
2023/06/12 04:53:53;;;;;;;4.80;4.50;;;;;;;22.99;59.82;99249.23;109692;1250;61116;-77
2023/06/12 04:56:22;;;;;;;4.50;4.10;;;;;;;22.80;59.66;99254.77;109622;1250;63763;-76
2023/06/12 04:58:49;;;;;;;;;;;;;;;22.81;60.13;99258.45;109398;1250;58231;-76
2023/06/12 05:01:19;;;;;;;4.90;4.50;;;;;;;22.88;59.95;99264.91;109612;1249;58977;-76
2023/06/12 05:03:46;;;;;;;6.60;4.90;;;;;;;22.80;58.33;99263.85;109653;1250;63859;-75
2023/06/12 05:06:12;;;;;;;7.20;5.00;;;;;;;22.65;59.34;99268.98;109702;1250;59039;-77
2023/06/12 05:08:40;;;;;;;4.80;4.10;;;;;;;22.85;58.74;99270.70;109667;1250;63895;-77
2023/06/12 05:11:06;;;;;;;5.40;4.10;;;;;;;22.89;58.71;99267.56;109604;1251;58172;-77
2023/06/12 05:13:33;;;;;;;5.80;4.60;;;;;;;22.93;58.11;99274.02;109525;1250;58383;-76
2023/06/12 05:15:59;;;;;;;4.80;4.40;;;;;;;22.91;57.94;99271.29;109638;1250;64966;-76
2023/06/12 05:18:26;;;;;;;4.20;3.90;;;;;;;22.98;58.28;99268.39;109616;1250;60299;-76
2023/06/12 05:20:52;;;;;;;7.00;4.10;;;;;;;23.20;57.70;99264.92;109630;1251;58554;-76
2023/06/12 05:23:19;;;;;;;4.70;4.20;;;;;;;23.39;57.88;99262.30;109653;1250;58173;-75
2023/06/12 05:25:45;;;;;;;5.20;3.70;;;;;;;23.68;57.07;99261.88;109620;1250;58601;-75
2023/06/12 05:28:13;;;;;;;5.10;3.50;;;;;;;23.88;56.27;99260.07;109299;1250;66675;-76
2023/06/12 05:30:39;;;;;;;3.90;3.30;;;;;;;24.08;55.77;99256.82;109674;1250;58964;-76
2023/06/12 05:33:06;;;;;;;7.60;4.20;;;;;;;24.19;53.97;99249.33;109682;1250;64557;-76
2023/06/12 05:35:34;;;;;;;4.00;3.50;;;;;;;24.12;54.07;99255.42;109605;1250;58226;-77
2023/06/12 05:38:01;;;;;;;3.40;3.20;;;;;;;24.15;53.54;99255.94;109597;1251;58157;-76
2023/06/12 05:40:27;;;;;;;4.60;3.60;;;;;;;24.20;53.33;99255.69;109635;1250;65298;-76
2023/06/12 05:42:56;;;;;;;7.70;3.60;;;;;;;24.32;52.85;99260.70;109640;1251;58617;-77
2023/06/12 05:45:22;;;;;;;3.70;3.40;;;;;;;24.49;53.09;99262.04;109669;1251;62639;-76
2023/06/12 05:47:49;;;;;;;6.70;3.40;;;;;;;24.71;52.54;99269.59;109569;1254;58200;-76
2023/06/12 05:50:15;;;;;;;3.50;3.30;;;;;;;24.79;50.95;99272.80;109620;1250;58192;-77
2023/06/12 05:52:42;;;;;;;3.60;3.30;;;;;;;24.57;50.29;99270.92;109642;1250;65247;-76
2023/06/12 05:55:09;;;;;;;3.70;3.40;;;;;;;24.53;50.82;99270.31;109606;1250;58821;-75
2023/06/12 05:57:36;;;;;;;4.60;3.50;;;;;;;24.64;50.96;99272.38;109586;1250;62490;-80
2023/06/12 06:00:05;;;;;;;4.00;3.40;;;;;;;24.40;49.85;99275.32;109608;1251;58536;-75
2023/06/12 06:02:32;;;;;;;4.10;3.40;;;;;;;23.60;50.09;99283.63;109526;1250;58278;-76
2023/06/12 06:04:59;;;;;;;2.90;2.70;;;;;;;22.77;49.67;99289.88;109642;1250;65446;-76
2023/06/12 06:07:26;;;;;;;4.70;3.20;;;;;;;22.57;50.32;99289.07;109673;1250;60570;-76
2023/06/12 06:09:53;;;;;;;7.10;3.50;;;;;;;22.66;50.14;99283.17;109582;1251;64123;-77
2023/06/12 06:12:19;;;;;;;3.40;2.70;;;;;;;22.71;49.87;99278.79;109597;1251;58204;-76
2023/06/12 06:14:46;;;;;;;4.40;3.70;;;;;;;22.64;49.17;99280.67;109612;1249;58056;-77
2023/06/12 06:17:13;;;;;;;3.40;3.10;;;;;;;22.63;50.11;99281.11;109605;1249;65270;-75
2023/06/12 06:19:40;;;;;;;4.50;3.60;;;;;;;22.90;50.17;99279.23;109637;1250;59560;-77
2023/06/12 06:22:07;;;;;;;4.90;3.00;;;;;;;22.96;49.38;99283.17;109617;1250;62705;-76
2023/06/12 06:24:33;;;;;;;3.10;2.90;;;;;;;23.13;49.25;99284.66;109574;1253;58226;-77
2023/06/12 06:27:02;;;;;;;6.40;3.70;;;;;;;23.32;48.90;99282.23;109675;1249;58684;-76
2023/06/12 06:29:28;;;;;;;3.40;2.90;;;;;;;23.52;48.92;99271.58;109616;1251;66328;-77
2023/06/12 06:31:55;;;;;;;6.00;3.00;;;;;;;23.64;48.63;99267.27;109606;1249;58916;-77
2023/06/12 06:34:21;;;;;;;4.90;3.30;;;;;;;23.66;48.05;99271.66;109606;1250;63764;-77
2023/06/12 06:36:48;;;;;;;4.50;3.60;;;;;;;23.62;47.83;99274.64;109595;1250;58150;-77
2023/06/12 06:39:15;;;;;;;4.30;3.10;;;;;;;23.61;47.68;99278.95;109617;1251;58456;-76
2023/06/12 06:41:41;;;;;;;5.50;3.30;;;;;;;23.48;46.85;99277.08;109672;1251;64937;-77
2023/06/12 06:44:08;;;;;;;3.80;3.00;;;;;;;23.35;46.84;99276.91;109669;1251;58722;-76
2023/06/12 06:46:34;;;;;;;3.10;2.90;;;;;;;23.49;47.38;99271.94;109641;1250;62501;-76
2023/06/12 06:49:01;;;;;;;3.50;3.20;;;;;;;23.67;46.70;99272.20;109288;1251;58560;-76
2023/06/12 06:51:29;;;;;;;2.90;2.60;;;;;;;23.71;46.98;99271.09;109634;1251;58441;-78
2023/06/12 06:53:55;;;;;;;4.20;3.10;;;;;;;23.72;45.81;99273.98;109636;1250;65039;-76
2023/06/12 06:56:22;;;;;;;3.40;2.30;;;;;;;23.43;44.28;99281.42;109681;1251;58642;-77
2023/06/12 06:58:49;;;;;;;6.60;2.70;;;;;;;23.00;43.96;99283.30;109589;1252;63859;-76
2023/06/12 07:01:17;;;;;;;3.10;2.80;;;;;;;22.81;44.78;99277.88;109383;1250;58301;-77
2023/06/12 07:03:43;;;;;;;3.10;2.60;;;;;;;22.78;44.33;99280.40;109645;1251;58086;-76
2023/06/12 07:06:10;;;;;;;3.00;2.20;;;;;;;22.72;43.79;99279.42;109642;1250;66156;-76
2023/06/12 07:08:36;;;;;;;3.60;2.60;;;;;;;22.71;42.94;99282.09;109614;1253;60244;-76
2023/06/12 07:11:03;;;;;;;3.60;2.00;;;;;;;22.75;42.96;99278.34;109616;1250;63753;-76
2023/06/12 07:13:29;;;;;;;2.90;2.30;;;;;;;22.78;43.03;99281.59;109631;1250;58435;-76
2023/06/12 07:15:56;;;;;;;4.20;2.60;;;;;;;22.80;42.75;99278.19;109581;1251;58108;-76
2023/06/12 07:18:22;;;;;;;3.00;2.70;;;;;;;22.85;42.78;99275.80;109614;1250;65458;-76
2023/06/12 07:20:49;;;;;;;5.40;2.10;;;;;;;22.98;43.12;99280.52;109702;1250;59127;-76
2023/06/12 07:23:15;;;;;;;2.20;2.00;;;;;;;23.04;42.36;99276.58;109616;1251;63769;-76
2023/06/12 07:25:42;;;;;;;5.00;2.30;;;;;;;22.94;42.20;99278.16;109583;1254;58073;-77
2023/06/12 07:28:08;;;;;;;3.60;2.30;;;;;;;22.85;42.09;99281.06;109627;1250;58210;-75
2023/06/12 07:30:35;;;;;;;3.70;2.70;;;;;;;22.60;41.90;99274.61;109604;1251;64905;-76
2023/06/12 07:33:01;;;;;;;5.10;3.20;;;;;;;22.10;42.23;99271.59;109583;1250;58164;-76
2023/06/12 07:35:28;;;;;;;3.70;2.30;;;;;;;21.79;43.35;99272.34;109616;1250;63753;-76
2023/06/12 07:37:55;;;;;;;3.20;2.60;;;;;;;21.76;43.84;99274.53;109604;1250;58148;-77
2023/06/12 07:40:21;;;;;;;3.40;2.40;;;;;;;21.66;43.95;99276.62;109573;1251;58284;-77
2023/06/12 07:42:48;;;;;;;3.30;2.80;;;;;;;21.56;43.89;99276.14;109645;1250;65282;-76
2023/06/12 07:45:15;;;;;;;4.60;2.70;;;;;;;21.49;44.75;99272.04;109625;1250;60102;-76
2023/06/12 07:47:42;;;;;;;5.60;2.30;;;;;;;21.58;44.95;99272.92;109630;1251;63883;-77
2023/06/12 07:50:09;;;;;;;2.60;2.00;;;;;;;21.68;45.03;99280.96;109603;1251;58226;-76
2023/06/12 07:52:35;;;;;;;2.60;2.20;;;;;;;21.71;43.94;99281.16;109530;1251;58234;-77
2023/06/12 07:55:03;;;;;;;4.00;2.60;;;;;;;21.50;43.17;99290.55;109595;1251;64949;-76
2023/06/12 07:57:30;;;;;;;3.70;2.60;;;;;;;21.30;43.56;99295.73;109663;1250;58900;-77
2023/06/12 07:59:57;;;;;;;5.40;2.40;;;;;;;21.13;43.44;99293.73;109519;1250;64152;-77
2023/06/12 08:02:28;;;;;;;8.10;2.90;;;;;;;20.87;43.75;99288.55;109568;1250;58399;-80
2023/06/12 08:04:56;;;;;;;4.20;2.50;;;;;;;20.91;44.52;99285.80;109569;1251;58216;-73
2023/06/12 08:07:22;;;;;;;5.70;2.70;;;;;;;21.20;45.14;99287.34;109623;1250;65293;-73
2023/06/12 08:09:49;;;;;;;4.30;2.70;;;;;;;21.57;45.02;99285.17;109621;1251;60166;-73
2023/06/12 08:12:16;;;;;;;3.90;2.20;;;;;;;21.43;44.17;99295.40;109308;1255;62416;-74
2023/06/12 08:14:42;;;;;;;2.40;2.10;;;;;;;21.22;44.27;99298.02;109658;1250;58137;-73
2023/06/12 08:17:11;;;;;;;3.10;2.40;;;;;;;21.29;44.53;99294.23;109628;1251;58250;-74
2023/06/12 08:19:37;;;;;;;3.30;2.70;;;;;;;21.50;44.88;99289.05;109604;1251;64955;-78
2023/06/12 08:22:07;;;;;;;4.70;2.50;;;;;;;21.73;44.42;99291.27;109589;1251;60396;-74
2023/06/12 08:24:35;;;;;;;11.70;3.70;;;;;;;21.79;43.97;99291.33;109503;1250;64447;-75
2023/06/12 08:27:02;;;;;;;7.20;2.80;;;;;;;22.00;44.14;99287.58;109582;1250;58531;-76
2023/06/12 08:29:29;;;;;;;4.90;2.50;;;;;;;22.03;44.04;99287.80;109613;1250;58482;-74
2023/06/12 08:31:56;;;;;;;5.40;2.40;;;;;;;21.80;43.51;99286.36;109608;1250;63901;-74
2023/06/12 08:34:24;;;;;;;5.90;2.80;;;;;;;21.41;43.67;99283.91;109641;1251;58887;-75
2023/06/12 08:36:52;;;;;;;22.90;4.10;;;;;;;21.25;43.77;99283.64;109624;1251;63818;-75
2023/06/12 08:39:20;;;;;;;6.30;2.10;;;;;;;21.34;44.38;99280.83;109550;1251;58119;-75
2023/06/12 08:42:03;;;;;;;4.50;2.60;;;;;;;21.46;44.54;99276.17;109610;1250;58202;-74
2023/06/12 08:44:31;;;;;;;4.50;3.30;;;;;;;21.55;44.56;99277.38;109644;1251;63900;-76
2023/06/12 08:47:00;;;;;;;3.40;2.50;;;;;;;21.82;44.77;99278.67;109611;1250;58645;-74
2023/06/12 08:49:27;;;;;;;6.70;2.80;;;;;;;22.19;44.95;99276.64;109595;1251;63323;-75
2023/06/12 08:51:54;;;;;;;3.00;2.30;;;;;;;22.30;44.24;99275.22;109553;1249;58081;-75
2023/06/12 08:54:21;;;;;;;4.80;2.70;;;;;;;22.12;43.79;99276.26;109610;1250;58164;-74
2023/06/12 08:56:50;;;;;;;4.20;2.20;;;;;;;21.90;43.89;99280.02;109614;1251;64067;-74
2023/06/12 08:59:17;;;;;;;3.30;2.70;;;;;;;21.81;43.81;99271.80;109619;1251;60174;-75
2023/06/12 09:01:45;;;;;;;5.50;2.40;;;;;;;21.76;43.85;99269.99;109651;1251;64057;-73
2023/06/12 09:04:21;;;;;;;3.60;2.20;;;;;;;21.83;43.37;99274.41;109585;1250;58119;-74
2023/06/12 09:06:51;;;;;;;4.90;2.00;;;;;;;21.86;43.13;99270.84;109629;1251;58217;-76
2023/06/12 09:09:18;;;;;;;5.60;1.70;;;;;;;21.96;43.43;99274.86;109607;1251;63702;-76
2023/06/12 09:11:46;;;;;;;2.60;2.10;;;;;;;22.00;42.09;99282.43;109627;1251;59790;-75
2023/06/12 09:14:12;;;;;;;2.80;2.00;;;;;;;21.94;42.03;99277.11;109603;1251;62492;-76
2023/06/12 09:16:45;;;;;;;5.50;3.00;;;;;;;21.95;42.15;99274.62;109565;1253;58178;-75
2023/06/12 09:19:11;;;;;;;4.10;2.10;;;;;;;21.74;42.24;99275.95;109615;1251;58189;-75
2023/06/12 09:21:38;;;;;;;3.00;1.80;;;;;;;21.89;42.50;99275.56;109396;1251;63839;-75
2023/06/12 09:24:05;;;;;;;2.00;1.80;;;;;;;22.16;41.89;99283.53;109573;1250;59818;-75
2023/06/12 09:26:31;;;;;;;4.60;2.10;;;;;;;22.11;41.48;99286.91;109591;1249;63731;-75
2023/06/12 09:28:59;;;;;;;5.90;2.00;;;;;;;22.06;40.84;99284.98;109644;1249;58178;-75
2023/06/12 09:31:25;;;;;;;3.60;1.90;;;;;;;22.00;40.66;99279.42;109612;1249;58250;-74
2023/06/12 09:33:53;;;;;;;4.60;2.00;;;;;;;21.90;40.34;99276.42;109605;1251;66485;-73
2023/06/12 09:36:21;;;;;;;6.00;2.30;;;;;;;21.88;40.86;99275.13;109589;1251;60310;-74
2023/06/12 09:38:51;;;;;;;4.10;2.00;;;;;;;21.81;40.52;99276.07;109360;1251;62865;-75
2023/06/12 09:41:23;;;;;;;2.20;1.80;;;;;;;21.86;39.93;99276.10;109589;1250;58178;-74
2023/06/12 09:44:01;;;;;;;4.20;2.20;;;;;;;21.76;39.74;99269.63;109614;1249;58330;-74
2023/06/12 09:46:27;;;;;;;1.80;1.70;;;;;;;21.72;39.67;99265.85;109636;1249;63686;-74
2023/06/12 09:48:57;;;;;;;4.10;1.90;;;;;;;21.59;39.83;99264.98;109636;1249;59039;-75
2023/06/12 09:51:23;;;;;;;6.20;2.50;;;;;;;21.67;39.74;99264.05;109616;1250;71739;-76
2023/06/12 09:53:53;;;;;;;4.80;1.80;;;;;;;21.81;39.23;99262.21;109588;1250;58170;-74
2023/06/12 09:56:21;;;;;;;4.80;2.20;;;;;;;21.95;38.83;99275.46;109624;1249;58295;-74
2023/06/12 09:58:49;;;;;;;2.60;2.30;;;;;;;22.06;38.82;99269.54;109614;1250;65201;-75
2023/06/12 10:01:19;;;;;;;7.50;2.20;;;;;;;22.10;38.96;99263.10;109616;1250;58604;-74
2023/06/12 10:03:50;;;;;;;2.90;1.70;;;;;;;22.10;39.02;99259.66;109558;1250;64106;-75
2023/06/12 10:06:18;;;;;;;2.40;1.70;;;;;;;22.01;38.63;99263.94;109339;1250;58154;-74
2023/06/12 10:08:48;;;;;;;3.70;1.60;;;;;;;21.98;38.58;99263.60;109650;1250;58355;-74
2023/06/12 10:11:15;;;;;;;4.50;1.80;;;;;;;22.18;38.62;99260.98;109622;1249;64148;-74
2023/06/12 10:13:42;;;;;;;3.60;1.70;;;;;;;22.28;38.98;99253.52;109585;1250;61451;-75
2023/06/12 10:16:09;;;;;;;4.20;2.20;;;;;;;22.39;38.40;99256.55;109594;1250;64154;-74
2023/06/12 10:18:38;;;;;;;5.00;2.10;;;;;;;22.42;37.83;99257.24;109599;1250;58109;-76
2023/06/12 10:21:05;;;;;;;2.90;1.60;;;;;;;22.19;37.15;99261.34;109631;1250;58136;-74
2023/06/12 10:23:33;;;;;;;3.50;1.90;;;;;;;21.81;37.67;99265.16;109647;1249;63825;-74
2023/06/12 10:26:00;;;;;;;3.90;2.10;;;;;;;21.65;37.62;99265.23;109654;1249;60201;-74
2023/06/12 10:28:27;;;;;;;10.90;2.30;;;;;;;21.51;38.43;99258.43;109615;1249;62862;-74
2023/06/12 10:31:16;;;;;;;4.60;2.00;;;;;;;21.49;38.50;99255.72;109556;1250;58252;-75
2023/06/12 10:34:02;;;;;;;2.90;2.10;;;;;;;21.56;37.94;99255.28;109543;1250;58242;-75
2023/06/12 10:36:44;;;;;;;2.00;1.70;;;;;;;21.82;37.56;99252.46;109533;1250;65133;-75
2023/06/12 10:39:19;;;;;;;2.40;1.90;;;;;;;22.17;37.39;99250.98;109649;1250;59863;-75
2023/06/12 10:41:54;;;;;;;2.90;1.90;;;;;;;22.42;36.40;99255.05;109617;1250;63754;-74
2023/06/12 10:44:47;;;;;;;3.80;2.10;;;;;;;22.53;36.57;99248.44;109540;1251;58444;-75
2023/06/12 10:47:23;;;;;;;2.50;1.90;;;;;;;22.65;37.06;99248.92;109506;1249;58088;-74
2023/06/12 10:50:04;;;;;;;2.70;1.40;;;;;;;22.81;36.87;99236.38;109623;1250;65316;-75
2023/06/12 10:52:32;;;;;;;3.40;1.60;;;;;;;23.00;36.55;99234.80;109604;1250;61189;-75
2023/06/12 10:55:37;;;;;;;7.00;1.80;;;;;;;22.91;35.72;99233.08;109625;1250;62813;-74
2023/06/12 10:58:10;;;;;;;5.50;2.00;;;;;;;22.78;36.39;99227.85;108965;1258;58284;-74
2023/06/12 11:00:47;;;;;;;4.10;1.40;;;;;;;23.02;36.73;99225.27;109003;1258;58209;-74
2023/06/12 11:03:29;;;;;;;4.00;1.70;;;;;;;23.17;36.15;99220.89;108981;1258;65734;-76
2023/06/12 11:06:01;;;;;;;2.60;1.50;;;;;;;23.14;35.63;99214.89;108864;1259;61272;-74
2023/06/12 11:08:32;;;;;;;5.40;1.80;;;;;;;22.98;35.69;99208.94;108972;1258;64106;-75
2023/06/12 11:10:59;;;;;;;4.20;2.90;;;;;;;22.71;35.74;99212.02;108934;1259;58280;-76
2023/06/12 11:13:26;;;;;;;4.50;1.60;;;;;;;22.51;35.29;99209.41;109016;1258;58482;-75
2023/06/12 11:15:53;;;;;;;3.00;1.80;;;;;;;22.44;36.00;99198.70;108993;1258;65275;-74
2023/06/12 11:18:20;;;;;;;2.20;1.70;;;;;;;22.75;35.79;99195.05;108999;1258;59036;-76
2023/06/12 11:20:51;;;;;;;2.50;2.10;;;;;;;22.84;35.55;99191.48;108950;1258;64121;-75
2023/06/12 11:23:22;;;;;;;7.10;2.20;;;;;;;22.62;35.48;99198.91;108999;1258;58229;-75
2023/06/12 11:25:49;;;;;;;4.10;2.80;;;;;;;22.32;35.85;99198.89;108963;1258;58073;-75
2023/06/12 11:28:15;;;;;;;8.70;2.20;;;;;;;22.23;36.44;99193.50;108977;1258;63735;-74